Time;durP1;ratioP1;P1;durP2;ratioP2;P2;SDS_P1;SDS_P2;PMS_P1;PMS_P2;Temp;Humidity;BMP_temperature;BMP_pressure;BME280_temperature;BME280_humidity;BME280_pressure;Samples;Min_cycle;Max_cycle;Signal;HPM_P1;HPM_P2
2023/05/14 00:01:51;;;;;;;34.63;22.83;;;16.60;99.90;;;16.99;79.03;101960.63;4929108;29;20060;-66
2023/05/14 00:04:20;;;;;;;29.67;20.92;;;16.60;99.90;;;16.92;78.77;101961.63;4925415;29;20051;-67
2023/05/14 00:06:48;;;;;;;35.17;22.65;;;16.50;99.90;;;16.87;79.00;101955.47;4926549;29;20040;-67
2023/05/14 00:09:16;;;;;;;34.05;22.52;;;16.50;99.90;;;16.65;79.18;101905.88;4927940;29;20111;-67
2023/05/14 00:11:46;;;;;;;36.60;23.10;;;16.50;99.90;;;16.87;78.75;101950.13;4927809;29;20047;-66
2023/05/14 00:14:14;;;;;;;32.88;22.10;;;16.50;99.90;;;16.82;78.61;101940.41;4928843;29;20560;-67
2023/05/14 00:16:43;;;;;;;35.05;21.67;;;16.50;99.90;;;16.83;79.13;101939.50;4925862;29;20044;-67
2023/05/14 00:19:11;;;;;;;31.27;21.60;;;16.40;99.90;;;16.83;78.93;101944.84;4929294;29;20063;-67
2023/05/14 00:21:39;;;;;;;33.28;21.80;;;16.40;99.90;;;16.73;79.06;101936.06;4925840;29;20052;-67
2023/05/14 00:24:08;;;;;;;29.92;21.92;;;16.30;99.90;;;16.79;79.03;101937.75;4925620;29;20048;-67
2023/05/14 00:26:36;;;;;;;31.35;22.85;;;16.40;99.90;;;16.84;78.70;101933.25;4929336;29;20067;-67
2023/05/14 00:29:06;;;;;;;29.52;21.52;;;16.40;99.90;;;16.86;78.58;101931.44;4928478;29;20054;-67
2023/05/14 00:31:35;;;;;;;35.30;22.15;;;16.40;99.90;;;16.79;78.63;101935.09;4927503;29;20139;-66
2023/05/14 00:34:03;;;;;;;31.92;22.63;;;16.40;99.90;;;16.78;78.87;101931.53;4942147;29;20083;-67
2023/05/14 00:36:31;;;;;;;35.40;22.63;;;16.40;99.90;;;16.78;78.67;101931.53;4943863;29;20091;-67
2023/05/14 00:39:00;;;;;;;34.08;21.83;;;16.40;99.90;;;16.79;78.68;101930.63;4926570;29;20389;-67
2023/05/14 00:41:28;;;;;;;31.88;21.65;;;16.40;99.90;;;16.76;78.56;101932.47;4928444;29;20126;-67
2023/05/14 00:43:56;;;;;;;30.25;21.88;;;16.30;99.90;;;16.69;79.28;101934.31;4926019;29;20391;-67
2023/05/14 00:46:26;;;;;;;32.95;23.02;;;16.20;99.90;;;16.69;79.12;101931.66;4929057;29;20115;-67
2023/05/14 00:48:55;;;;;;;33.67;22.00;;;16.30;99.90;;;16.54;79.69;101934.50;4940521;29;20501;-67
2023/05/14 00:51:24;;;;;;;33.30;23.05;;;16.20;99.90;;;16.64;80.06;101933.50;4928280;29;20051;-67
2023/05/14 00:53:53;;;;;;;33.13;24.35;;;16.20;99.90;;;16.51;80.33;101931.84;4926273;29;20048;-66
2023/05/14 00:56:21;;;;;;;28.45;22.65;;;16.10;99.90;;;16.42;80.43;101918.59;4930184;29;20062;-66
2023/05/14 00:58:50;;;;;;;35.75;23.50;;;16.10;99.90;;;16.42;80.83;101915.91;4926852;29;20135;-67
2023/05/14 01:01:18;;;;;;;35.83;22.73;;;16.00;99.90;;;16.46;80.88;101912.31;4927561;29;20052;-66
2023/05/14 01:03:48;;;;;;;33.65;23.48;;;16.00;99.90;;;16.57;80.78;101918.44;4926145;29;20048;-66
2023/05/14 01:06:24;;;;;;;31.52;22.25;;;16.10;99.90;;;16.36;81.12;101904.41;4927957;29;20054;-67
2023/05/14 01:09:03;;;;;;;39.33;23.25;;;16.10;99.90;;;16.48;81.51;101904.28;4931408;29;20408;-67
2023/05/14 01:11:42;;;;;;;35.97;22.73;;;16.10;99.90;;;16.50;81.76;101902.50;4925162;29;20048;-67
2023/05/14 01:14:21;;;;;;;32.92;22.70;;;16.10;99.90;;;16.60;81.67;101915.75;4925302;29;20056;-66
2023/05/14 01:16:55;;;;;;;35.00;22.92;;;16.20;99.90;;;16.56;81.90;101913.13;4926830;29;20102;-66
2023/05/14 01:19:34;;;;;;;31.02;22.15;;;16.20;99.90;;;16.55;81.86;101916.72;4928249;29;20055;-67
2023/05/14 01:22:04;;;;;;;38.15;23.73;;;16.20;99.90;;;16.43;82.60;101914.13;4926060;29;20096;-67
2023/05/14 01:24:33;;;;;;;32.05;21.50;;;16.10;99.90;;;16.30;82.55;101881.34;4933091;29;20080;-67
2023/05/14 01:27:08;;;;;;;34.97;22.80;;;16.00;99.90;;;16.49;82.31;101914.97;4926790;29;20485;-67
2023/05/14 01:29:41;;;;;;;29.77;21.25;;;16.10;99.90;;;16.46;82.36;101919.44;4924728;29;20044;-67
2023/05/14 01:32:12;;;;;;;34.53;22.80;;;16.10;99.90;;;16.49;82.57;101912.28;4925384;29;20048;-69
2023/05/14 01:34:41;;;;;;;27.50;20.65;;;16.10;99.90;;;16.43;82.35;101911.47;4927192;29;20135;-67
2023/05/14 01:37:12;;;;;;;30.90;22.02;;;16.10;99.90;;;16.39;82.69;101912.41;4937543;29;20044;-67
2023/05/14 01:39:42;;;;;;;30.45;20.35;;;16.00;99.90;;;16.35;82.86;101906.22;4925846;29;20056;-67
2023/05/14 01:42:11;;;;;;;31.88;20.83;;;16.00;99.90;;;16.39;82.61;101902.63;4925228;29;20119;-67
2023/05/14 01:44:39;;;;;;;33.00;20.42;;;16.00;99.90;;;16.40;82.90;101895.47;4939109;29;20064;-67
2023/05/14 01:47:08;;;;;;;32.20;20.63;;;16.00;99.90;;;16.39;82.90;101893.72;4924642;29;20079;-67
2023/05/14 01:49:36;;;;;;;28.08;20.75;;;15.90;99.90;;;16.41;82.69;101889.25;4922333;29;20492;-67
2023/05/14 01:52:07;;;;;;;30.45;21.08;;;16.00;99.90;;;16.42;82.59;101891.88;4942046;29;20588;-67
2023/05/14 01:54:37;;;;;;;30.95;20.73;;;16.00;99.90;;;16.44;82.46;101887.41;4937242;29;20063;-67
2023/05/14 01:57:05;;;;;;;25.40;19.80;;;16.00;99.90;;;16.34;82.72;101893.75;4926442;29;20052;-67
2023/05/14 01:59:34;;;;;;;30.20;21.20;;;16.00;99.90;;;16.31;82.59;101883.13;4938059;29;20142;-67
2023/05/14 02:02:02;;;;;;;36.05;21.73;;;15.90;99.90;;;16.33;82.66;101883.09;4938832;29;20051;-66
2023/05/14 02:04:30;;;;;;;31.13;21.15;;;15.90;99.90;;;16.23;83.02;101883.22;4938468;29;20048;-66
2023/05/14 02:06:59;;;;;;;27.60;21.02;;;15.80;99.90;;;16.22;83.08;101876.09;4927209;29;20066;-67
2023/05/14 02:09:27;;;;;;;32.35;21.20;;;15.80;99.90;;;16.28;83.02;101875.13;4927826;29;20103;-66
2023/05/14 02:11:57;;;;;;;30.98;20.00;;;15.80;99.90;;;16.18;83.21;101879.69;4927808;29;20140;-66
2023/05/14 02:14:25;;;;;;;31.08;20.90;;;15.80;99.90;;;16.25;83.23;101877.84;4924824;29;20055;-66
2023/05/14 02:16:53;;;;;;;32.05;21.05;;;15.70;99.90;;;16.13;83.69;101875.31;4926781;29;20047;-67
2023/05/14 02:19:22;;;;;;;31.90;20.85;;;15.70;99.90;;;16.28;83.14;101888.47;4925291;29;20052;-67
2023/05/14 02:21:50;;;;;;;34.45;20.80;;;15.80;99.90;;;16.29;83.11;101879.59;4938115;29;20056;-67
2023/05/14 02:24:18;;;;;;;27.83;20.30;;;15.80;99.90;;;16.13;83.06;101873.53;4940342;29;20465;-66
2023/05/14 02:26:47;;;;;;;33.05;20.85;;;15.80;99.90;;;16.10;83.29;101878.88;4937822;29;20036;-66
2023/05/14 02:29:16;;;;;;;35.83;20.85;;;15.70;99.90;;;16.10;83.31;101867.34;4926687;29;20539;-66
2023/05/14 02:31:45;;;;;;;36.53;21.63;;;15.80;99.90;;;16.15;83.41;101871.72;4927445;29;20048;-67
2023/05/14 02:34:13;;;;;;;31.65;21.88;;;15.70;99.90;;;16.13;83.76;101878.88;4927029;29;20052;-67
2023/05/14 02:36:42;;;;;;;32.47;21.45;;;15.70;99.90;;;16.11;84.07;101879.78;4924133;29;20096;-68
2023/05/14 02:39:10;;;;;;;37.17;21.25;;;15.80;99.90;;;15.90;84.25;101856.00;4933554;29;20056;-66
2023/05/14 02:41:39;;;;;;;29.15;20.60;;;15.70;99.90;;;15.95;84.49;101864.84;4939735;29;20048;-66
2023/05/14 02:44:07;;;;;;;32.85;20.58;;;15.60;99.90;;;15.96;84.55;101869.28;4924792;29;20051;-67
2023/05/14 02:46:36;;;;;;;30.55;20.25;;;15.50;99.90;;;16.05;84.79;101874.50;4925873;29;20056;-67
2023/05/14 02:49:05;;;;;;;35.47;20.13;;;15.60;99.90;;;15.89;84.55;101852.44;4928808;29;20048;-67
2023/05/14 02:51:33;;;;;;;32.05;20.65;;;15.60;99.90;;;15.95;85.34;101864.84;4928351;29;20299;-67
2023/05/14 02:54:02;;;;;;;36.25;20.60;;;15.50;99.90;;;16.07;85.08;101867.38;4927452;29;20445;-66
2023/05/14 02:56:30;;;;;;;32.58;19.52;;;15.60;99.90;;;15.79;85.70;101841.88;4930559;29;20058;-67
2023/05/14 02:58:58;;;;;;;36.30;20.52;;;15.50;99.90;;;15.79;85.84;101857.91;4927505;29;20067;-67
2023/05/14 03:01:27;;;;;;;31.85;20.50;;;15.40;99.90;;;15.71;86.32;101857.97;4939054;29;20139;-67
2023/05/14 03:03:57;;;;;;;28.42;19.45;;;15.40;99.90;;;15.76;86.72;101861.47;4927131;29;20047;-66
2023/05/14 03:06:26;;;;;;;28.00;19.50;;;15.40;99.90;;;15.81;86.42;101854.31;4930073;29;20039;-67
2023/05/14 03:08:54;;;;;;;31.45;20.20;;;15.50;99.90;;;15.77;86.29;101863.25;4928591;29;20036;-66
2023/05/14 03:11:22;;;;;;;32.25;19.35;;;15.40;99.90;;;15.85;86.08;101861.38;4929185;29;20148;-66
2023/05/14 03:13:51;;;;;;;32.10;18.92;;;15.40;99.90;;;15.81;85.85;101857.00;4940524;29;20059;-67
2023/05/14 03:16:19;;;;;;;32.75;19.17;;;15.50;99.90;;;15.82;86.05;101857.84;4943060;29;20048;-67
2023/05/14 03:18:48;;;;;;;31.13;19.35;;;15.50;99.90;;;15.80;86.09;101856.97;4929858;29;20059;-66
2023/05/14 03:21:18;;;;;;;27.83;19.33;;;15.40;99.90;;;15.70;86.12;101847.31;4927642;29;20052;-66
2023/05/14 03:23:46;;;;;;;29.93;19.70;;;15.40;99.90;;;15.75;86.01;101853.47;4940971;29;20056;-67
2023/05/14 03:26:14;;;;;;;29.83;18.80;;;15.40;99.90;;;15.63;86.26;101853.59;4927063;29;20303;-67
2023/05/14 03:28:44;;;;;;;31.17;19.02;;;15.30;99.90;;;15.68;86.39;101844.63;4936454;29;20110;-67
2023/05/14 03:31:12;;;;;;;31.45;19.52;;;15.30;99.90;;;15.84;86.06;101846.28;4928057;29;20469;-66
2023/05/14 03:33:41;;;;;;;29.17;18.42;;;15.30;99.90;;;15.67;86.19;101850.00;4928675;29;20091;-67
2023/05/14 03:36:09;;;;;;;28.05;18.17;;;15.30;99.90;;;15.74;85.88;101839.25;4926719;29;20516;-67
2023/05/14 03:38:39;;;;;;;34.17;19.45;;;15.30;99.90;;;15.79;85.98;101844.56;4928764;29;20494;-67
2023/05/14 03:41:08;;;;;;;30.77;19.10;;;15.40;99.90;;;15.82;86.09;101844.50;4927829;29;20052;-66
2023/05/14 03:43:36;;;;;;;25.25;19.15;;;15.40;99.90;;;15.76;86.05;101840.13;4941332;29;20052;-67
2023/05/14 03:46:05;;;;;;;30.48;18.92;;;15.40;99.90;;;15.74;86.15;101839.25;4939733;29;20596;-66
2023/05/14 03:48:33;;;;;;;29.55;19.65;;;15.30;99.90;;;15.85;86.21;101836.50;4941296;29;20059;-66
2023/05/14 03:51:04;;;;;;;28.58;18.77;;;15.40;99.90;;;15.82;86.09;101840.06;4935759;29;20080;-67
2023/05/14 03:53:36;;;;;;;26.95;18.95;;;15.40;99.90;;;15.88;85.76;101840.00;4939369;29;20052;-66
2023/05/14 03:56:06;;;;;;;31.80;19.77;;;15.40;99.90;;;15.94;85.50;101844.38;4941313;29;20052;-67
2023/05/14 03:58:34;;;;;;;26.35;18.45;;;15.40;99.90;;;15.80;85.38;101847.19;4940486;29;20048;-67
2023/05/14 04:01:03;;;;;;;32.30;19.50;;;15.40;99.90;;;15.90;85.50;101842.66;4926381;29;20044;-67
2023/05/14 04:03:31;;;;;;;26.92;17.75;;;15.50;99.90;;;15.78;85.54;101845.44;4940819;29;20269;-66
2023/05/14 04:06:00;;;;;;;29.08;18.83;;;15.40;99.90;;;15.80;85.63;101847.19;4925953;29;20051;-66
2023/05/14 04:08:28;;;;;;;28.13;18.42;;;15.40;99.90;;;15.88;85.45;101852.44;4941053;29;20485;-67
2023/05/14 04:10:57;;;;;;;28.73;19.50;;;15.40;99.90;;;15.89;85.19;101848.91;4935827;29;20039;-67
2023/05/14 04:13:26;;;;;;;31.90;20.13;;;15.50;99.90;;;15.73;85.55;101853.50;4938416;29;20091;-67
2023/05/14 04:15:55;;;;;;;27.80;19.37;;;15.30;99.90;;;15.51;86.32;101832.38;4944748;29;20567;-68
2023/05/14 04:18:24;;;;;;;32.42;20.05;;;15.30;99.90;;;15.71;86.79;101849.06;4934097;29;20306;-67
2023/05/14 04:20:53;;;;;;;26.17;18.98;;;15.20;99.90;;;15.69;86.62;101854.44;4928256;29;20405;-67
2023/05/14 04:23:22;;;;;;;29.55;19.55;;;15.20;99.90;;;15.68;86.63;101849.13;4927428;29;20073;-67
2023/05/14 04:25:50;;;;;;;35.10;20.45;;;15.20;99.90;;;15.68;86.56;101851.78;4928678;29;20043;-67
2023/05/14 04:28:18;;;;;;;33.08;20.35;;;15.30;99.90;;;15.66;86.51;101853.59;4929664;29;20472;-67
2023/05/14 04:30:48;;;;;;;29.15;18.95;;;15.30;99.90;;;15.58;86.72;101850.94;4929387;29;20051;-67
2023/05/14 04:33:17;;;;;;;32.70;19.35;;;15.20;99.90;;;15.33;88.03;101844.94;4926140;29;20450;-67
2023/05/14 04:35:46;;;;;;;29.45;20.25;;;15.00;99.90;;;15.55;88.15;101860.78;4935080;29;20048;-67
2023/05/14 04:38:15;;;;;;;31.67;21.15;;;15.10;99.90;;;15.29;88.49;101856.50;4938626;29;20083;-67
2023/05/14 04:40:43;;;;;;;32.13;21.02;;;15.00;99.90;;;14.61;89.13;101732.72;4927267;29;20170;-67
2023/05/14 04:43:11;;;;;;;34.03;21.65;;;14.90;99.90;;;15.01;91.00;101862.06;4927198;29;20408;-67
2023/05/14 04:45:41;;;;;;;32.53;21.58;;;14.60;99.90;;;15.17;90.71;101847.75;4927972;29;20044;-67
2023/05/14 04:48:11;;;;;;;31.67;22.20;;;14.80;99.90;;;15.29;90.75;101856.50;4925321;29;20048;-67
2023/05/14 04:50:39;;;;;;;33.83;22.25;;;14.90;99.90;;;15.34;90.09;101846.72;4924314;29;20417;-67
2023/05/14 04:53:08;;;;;;;37.60;23.25;;;14.90;99.90;;;15.28;90.38;101857.41;4925318;29;20044;-67
2023/05/14 04:55:36;;;;;;;37.05;22.73;;;14.90;99.90;;;15.20;90.45;101853.94;4925606;29;20040;-67
2023/05/14 04:58:05;;;;;;;31.95;23.13;;;14.80;99.90;;;15.31;90.36;101857.38;4929154;29;20042;-67
2023/05/14 05:00:34;;;;;;;42.15;24.48;;;14.90;99.90;;;15.41;90.59;101847.53;4928055;29;20051;-67
2023/05/14 05:03:02;;;;;;;34.85;24.40;;;15.00;99.90;;;15.28;90.92;101849.44;4926678;29;20589;-67
2023/05/14 05:05:32;;;;;;;36.97;24.52;;;14.90;99.90;;;15.47;90.68;101851.94;4927109;29;20055;-67
2023/05/14 05:08:00;;;;;;;38.35;25.05;;;15.00;99.90;;;15.25;90.37;101854.75;4927224;29;20052;-67
2023/05/14 05:10:29;;;;;;;37.28;24.58;;;14.90;99.90;;;14.71;93.26;101859.59;4926499;29;20126;-67
2023/05/14 05:12:57;;;;;;;40.70;27.58;;;14.50;99.90;;;14.51;95.18;101881.00;4925719;29;20135;-67
2023/05/14 05:15:25;;;;;;;40.92;27.48;;;14.20;99.90;;;14.75;94.66;101870.19;4928203;29;20090;-67
2023/05/14 05:17:54;;;;;;;45.72;26.58;;;14.40;99.90;;;13.94;96.01;101758.75;4939368;29;20059;-67
2023/05/14 05:20:23;;;;;;;42.47;27.70;;;14.20;99.90;;;14.62;95.12;101846.31;4920438;29;20429;-67
2023/05/14 05:22:53;;;;;;;40.13;28.02;;;14.40;99.90;;;15.03;94.79;101862.94;4923371;29;20052;-67
2023/05/14 05:25:22;;;;;;;42.03;28.63;;;14.50;99.90;;;15.06;94.39;101868.25;4926959;29;20130;-67
2023/05/14 05:27:50;;;;;;;43.08;29.17;;;14.60;99.90;;;14.95;93.80;101867.41;4926504;29;20047;-67
2023/05/14 05:30:19;;;;;;;43.00;29.63;;;14.60;99.90;;;15.22;93.67;101876.13;4931778;29;20048;-67
2023/05/14 05:32:47;;;;;;;42.15;30.88;;;14.80;99.90;;;15.23;92.76;101875.22;4923075;29;20076;-67
2023/05/14 05:35:16;;;;;;;36.90;27.05;;;14.80;99.90;;;15.32;92.29;101875.16;4925245;29;20052;-67
2023/05/14 05:37:44;;;;;;;43.30;30.30;;;15.00;99.90;;;15.36;91.26;101881.34;4927764;29;20377;-67
2023/05/14 05:40:14;;;;;;;46.35;31.85;;;15.00;99.90;;;15.42;90.44;101869.78;4927800;29;20419;-67
2023/05/14 05:42:43;;;;;;;50.97;32.97;;;15.10;99.90;;;15.46;89.76;101877.75;4924748;29;20591;-68
2023/05/14 05:45:11;;;;;;;40.28;31.58;;;15.10;99.90;;;15.53;89.36;101889.25;4933680;29;20500;-68
2023/05/14 05:47:40;;;;;;;44.78;32.70;;;15.20;99.90;;;14.90;88.88;101771.56;4925326;29;20433;-68
2023/05/14 05:50:11;;;;;;;41.92;31.63;;;15.20;99.90;;;15.51;89.08;101891.03;4926275;29;20051;-67
2023/05/14 05:52:39;;;;;;;42.50;31.55;;;15.20;99.90;;;15.50;88.63;101879.50;4927294;29;20086;-68
2023/05/14 05:55:09;;;;;;;43.05;32.20;;;15.20;99.90;;;15.46;88.84;101892.88;4925242;29;20089;-68
2023/05/14 05:57:39;;;;;;;41.15;32.15;;;15.10;99.90;;;15.51;88.53;101881.25;4927325;29;20075;-68
2023/05/14 06:00:12;;;;;;;43.90;31.38;;;15.20;99.90;;;15.63;88.42;101875.81;4924486;29;20048;-68
2023/05/14 06:02:41;;;;;;;45.10;32.63;;;15.30;99.90;;;15.18;88.04;101798.84;4923701;29;20051;-68
2023/05/14 06:05:11;;;;;;;43.33;33.03;;;15.40;99.90;;;15.65;88.06;101889.13;4925395;29;20051;-68
2023/05/14 06:07:40;;;;;;;46.53;33.30;;;15.30;99.90;;;15.67;87.30;101887.34;4927286;29;20103;-67
2023/05/14 06:10:09;;;;;;;47.28;34.65;;;15.30;99.90;;;15.54;87.02;101899.91;4928514;29;20110;-66
2023/05/14 06:12:39;;;;;;;40.78;33.15;;;15.30;99.90;;;15.64;87.17;101892.72;4928690;29;20046;-66
2023/05/14 06:15:08;;;;;;;39.35;30.95;;;15.30;99.90;;;15.68;87.31;101889.13;4925255;29;20052;-66
2023/05/14 06:17:37;;;;;;;41.80;31.75;;;15.40;99.90;;;15.57;87.36;101862.53;4930347;29;20048;-66
2023/05/14 06:20:08;;;;;;;39.47;31.35;;;15.40;99.90;;;15.78;87.23;101888.13;4927248;29;20123;-67
2023/05/14 06:22:37;;;;;;;39.10;30.70;;;15.50;99.90;;;15.71;87.27;101895.31;4924114;29;20479;-66
2023/05/14 06:25:07;;;;;;;39.28;29.58;;;15.40;99.90;;;15.82;87.08;101889.88;4925942;29;20404;-66
2023/05/14 06:27:35;;;;;;;38.70;27.88;;;15.50;99.90;;;15.83;87.18;101868.50;4925312;29;20047;-66
2023/05/14 06:30:06;;;;;;;35.60;27.40;;;15.60;99.90;;;16.01;87.03;101894.13;4939931;29;20122;-66
2023/05/14 06:32:35;;;;;;;34.78;26.08;;;15.70;99.90;;;15.94;87.08;101893.31;4928783;29;20056;-66
2023/05/14 06:35:04;;;;;;;33.20;26.08;;;15.60;99.90;;;16.07;86.87;101904.72;4926905;29;20047;-66
2023/05/14 06:37:32;;;;;;;30.50;22.95;;;15.70;99.90;;;15.87;86.05;101870.25;4938441;29;20064;-66
2023/05/14 06:40:01;;;;;;;26.70;21.92;;;15.80;99.90;;;16.03;86.31;101900.31;4923781;29;20071;-67
2023/05/14 06:42:29;;;;;;;31.00;23.75;;;15.70;99.90;;;16.06;86.65;101900.31;4926602;29;20044;-66
2023/05/14 06:44:59;;;;;;;28.05;22.08;;;15.70;99.90;;;16.15;86.69;101897.53;4938011;29;20126;-66
2023/05/14 06:47:28;;;;;;;28.80;21.77;;;15.80;99.90;;;16.12;86.12;101895.78;4921806;29;20048;-66
2023/05/14 06:49:57;;;;;;;29.90;21.83;;;15.80;99.90;;;16.07;86.09;101888.72;4923466;29;20104;-66
2023/05/14 06:52:26;;;;;;;30.98;21.80;;;15.80;99.90;;;16.13;86.13;101902.91;4922405;29;20052;-66
2023/05/14 06:54:54;;;;;;;28.05;21.33;;;15.80;99.90;;;16.15;86.26;101894.88;4920392;29;20040;-66
2023/05/14 06:57:23;;;;;;;25.98;20.23;;;15.80;99.90;;;16.27;86.32;101895.63;4924058;29;20147;-66
2023/05/14 06:59:51;;;;;;;29.13;21.10;;;15.90;99.90;;;16.35;86.54;101883.97;4923611;29;20040;-67
2023/05/14 07:02:20;;;;;;;31.85;22.08;;;16.00;99.90;;;16.34;86.26;101879.53;4926733;29;20131;-67
2023/05/14 07:04:50;;;;;;;28.67;20.63;;;16.10;99.90;;;16.61;86.26;101882.75;4941372;28;20051;-67
2023/05/14 07:07:20;;;;;;;27.17;21.10;;;16.30;99.90;;;16.80;85.87;101878.94;4936198;29;20044;-67
2023/05/14 07:09:48;;;;;;;30.02;20.58;;;16.40;99.90;;;16.83;84.60;101880.69;4924684;29;20058;-66
2023/05/14 07:12:17;;;;;;;28.65;21.02;;;16.50;99.90;;;16.92;84.11;101878.78;4933518;29;20126;-65
2023/05/14 07:14:45;;;;;;;26.25;19.27;;;16.60;99.90;;;16.94;83.38;101863.59;4921305;29;20078;-68
2023/05/14 07:17:14;;;;;;;27.73;20.25;;;16.70;99.90;;;17.15;83.21;101878.44;4930116;29;20111;-67
2023/05/14 07:19:42;;;;;;;24.45;20.02;;;16.80;99.90;;;17.28;82.75;101869.34;4923339;29;20056;-67
2023/05/14 07:22:12;;;;;;;26.40;18.65;;;17.00;99.90;;;17.47;82.48;101880.59;4922334;29;20044;-67
2023/05/14 07:24:40;;;;;;;23.80;18.08;;;17.10;99.90;;;17.57;81.38;101882.25;4921686;29;20048;-67
2023/05/14 07:27:09;;;;;;;28.23;18.08;;;17.20;99.90;;;17.66;80.72;101871.38;4937200;29;20087;-66
2023/05/14 07:29:37;;;;;;;29.55;17.55;;;17.40;99.90;;;17.79;80.14;101886.31;4923484;29;20103;-67
2023/05/14 07:32:06;;;;;;;27.27;17.00;;;17.40;99.90;;;17.87;79.38;101874.56;4920302;29;20048;-67
2023/05/14 07:34:34;;;;;;;24.85;16.63;;;17.60;99.90;;;17.99;79.01;101886.84;4925083;29;20575;-67
2023/05/14 07:37:03;;;;;;;22.40;16.10;;;17.70;99.90;;;18.14;78.85;101875.84;4930613;29;20059;-66
2023/05/14 07:39:33;;;;;;;23.98;15.95;;;17.80;99.90;;;18.32;77.36;101885.31;4926289;29;20087;-66
2023/05/14 07:42:01;;;;;;;24.67;15.97;;;17.90;99.90;;;18.33;76.81;101882.59;4922363;29;20098;-67
2023/05/14 07:44:30;;;;;;;28.45;16.05;;;18.00;99.90;;;18.43;77.09;101886.91;4925017;29;20040;-66
2023/05/14 07:46:58;;;;;;;27.42;16.20;;;18.10;99.90;;;18.46;76.15;101880.59;4927574;29;20047;-67
2023/05/14 07:49:26;;;;;;;23.98;17.17;;;18.10;99.90;;;18.56;76.21;101883.03;4924452;29;20048;-67
2023/05/14 07:51:55;;;;;;;24.02;16.20;;;18.20;99.90;;;18.68;75.71;101882.78;4925951;29;20044;-68
2023/05/14 07:54:23;;;;;;;18.83;14.25;;;18.30;99.90;;;18.66;75.32;101878.41;4927838;29;20044;-68
2023/05/14 07:56:53;;;;;;;23.08;14.40;;;18.40;99.90;;;18.69;74.74;101878.31;4925418;29;20041;-67
2023/05/14 07:59:21;;;;;;;21.73;14.68;;;18.40;99.90;;;18.68;74.56;101861.34;4931515;29;20048;-67
2023/05/14 08:01:50;;;;;;;23.52;13.77;;;18.50;99.90;;;18.91;74.31;101869.75;4925380;29;20051;-66
2023/05/14 08:04:19;;;;;;;21.23;13.45;;;18.60;99.90;;;18.91;73.58;101871.59;4927081;29;20095;-66
2023/05/14 08:06:47;;;;;;;20.02;13.52;;;18.60;99.90;;;18.98;72.68;101870.50;4926723;29;20040;-66
2023/05/14 08:09:19;;;;;;;22.45;13.63;;;18.70;99.90;;;18.92;73.02;101871.53;4929306;29;20051;-66
2023/05/14 08:11:47;;;;;;;23.70;14.15;;;18.60;99.90;;;18.98;73.16;101881.25;4928289;29;20466;-66
2023/05/14 08:14:17;;;;;;;21.73;14.05;;;18.70;99.90;;;19.05;72.51;101871.28;4924766;29;20048;-66
2023/05/14 08:16:45;;;;;;;18.50;13.17;;;18.80;99.90;;;19.03;71.82;101883.84;4940306;29;20060;-66
2023/05/14 08:19:15;;;;;;;21.45;11.75;;;18.80;99.90;;;19.07;71.56;101881.03;4929772;29;20296;-66
2023/05/14 08:21:44;;;;;;;18.08;11.95;;;18.80;99.90;;;19.06;71.58;101881.06;4926630;29;20048;-66
2023/05/14 08:24:13;;;;;;;19.70;11.32;;;18.80;99.90;;;19.09;71.61;101886.34;4923619;29;20075;-66
2023/05/14 08:26:41;;;;;;;18.67;10.73;;;18.90;99.90;;;19.17;71.28;101879.00;4924374;29;20134;-66
2023/05/14 08:29:10;;;;;;;20.92;12.25;;;18.90;99.90;;;19.28;71.53;101876.97;4924886;29;20048;-66
2023/05/14 08:31:42;;;;;;;18.23;11.70;;;19.00;99.90;;;19.32;71.43;101874.19;4923383;29;20058;-66
2023/05/14 08:34:10;;;;;;;17.30;11.33;;;19.10;99.90;;;18.90;70.10;101868.00;4928522;29;20564;-66
2023/05/14 08:36:39;;;;;;;23.20;12.13;;;18.80;99.90;;;18.63;72.35;101871.28;4922714;29;20130;-66
2023/05/14 08:39:08;;;;;;;18.50;11.40;;;18.40;99.90;;;18.63;71.96;101870.41;4924998;29;20442;-66
2023/05/14 08:41:36;;;;;;;18.83;10.32;;;18.30;99.90;;;19.02;72.44;101871.31;4930127;29;20151;-67
2023/05/14 08:44:09;;;;;;;19.88;10.95;;;18.60;99.90;;;19.26;71.31;101868.06;4931315;29;20353;-66
2023/05/14 08:46:38;;;;;;;20.00;10.93;;;18.90;99.90;;;19.44;69.50;101859.59;4924064;29;20187;-68
2023/05/14 08:49:21;;;;;;;20.25;10.88;;;19.10;99.90;;;19.52;69.22;101857.59;4928714;29;20118;-66
2023/05/14 08:51:50;;;;;;;23.40;10.98;;;19.20;99.90;;;19.63;69.27;101855.50;4929404;29;20060;-64
2023/05/14 08:54:22;;;;;;;17.63;9.70;;;19.40;99.90;;;19.88;68.68;101861.13;4925909;29;20040;-62
2023/05/14 08:56:52;;;;;;;18.00;10.35;;;19.60;99.90;;;20.05;68.09;101854.38;4927369;29;21666;-64
2023/05/14 08:59:20;;;;;;;18.60;9.63;;;19.80;99.90;;;20.16;66.58;101857.66;4925149;29;20052;-63
2023/05/14 09:01:53;;;;;;;16.73;9.45;;;19.90;99.90;;;20.30;65.25;101859.97;4923592;29;20071;-64
2023/05/14 09:04:24;;;;;;;17.20;9.15;;;20.00;99.90;;;20.42;64.32;101857.81;4927555;29;20082;-64
2023/05/14 09:06:55;;;;;;;21.33;9.75;;;20.20;99.90;;;20.54;63.12;101859.25;4936688;29;20413;-64
2023/05/14 09:09:23;;;;;;;18.27;10.00;;;20.30;99.90;;;20.69;63.28;101843.53;4926556;29;20058;-65
2023/05/14 09:11:54;;;;;;;16.58;9.27;;;20.50;99.90;;;20.88;63.23;101848.38;4922428;29;20040;-64
2023/05/14 09:14:23;;;;;;;16.90;8.98;;;20.60;99.90;;;21.03;62.14;101853.28;4931660;29;20493;-70
2023/05/14 09:16:53;;;;;;;24.65;10.15;;;20.80;99.90;;;20.86;63.29;101847.53;4929741;29;20059;-66
2023/05/14 09:19:24;;;;;;;17.65;9.68;;;20.60;99.90;;;20.51;64.44;101845.91;4940466;29;20115;-66
2023/05/14 09:21:52;;;;;;;19.95;9.85;;;20.40;99.90;;;20.78;65.20;101839.69;4927089;29;20091;-66
2023/05/14 09:24:22;;;;;;;20.77;9.32;;;20.40;99.90;;;20.91;63.89;101845.56;4926326;29;20413;-67
2023/05/14 09:26:52;;;;;;;17.80;9.52;;;20.60;99.90;;;20.76;61.21;101848.75;4925691;29;20048;-66
2023/05/14 09:29:20;;;;;;;19.88;10.05;;;20.50;99.90;;;20.82;62.63;101851.25;4930820;29;20047;-67
2023/05/14 09:31:51;;;;;;;19.92;9.95;;;20.50;99.90;;;20.54;63.68;101843.13;4923217;29;20123;-66
2023/05/14 09:34:29;;;;;;;18.20;10.32;;;20.30;99.90;;;20.25;65.02;101843.97;4923924;29;20373;-67
2023/05/14 09:36:59;;;;;;;18.17;9.88;;;20.10;99.90;;;19.90;65.75;101843.19;4926207;29;20086;-67
2023/05/14 09:39:29;;;;;;;20.67;10.52;;;19.70;99.90;;;19.96;64.64;101805.38;4925757;29;20047;-67
2023/05/14 09:41:57;;;;;;;17.33;9.05;;;19.80;99.90;;;20.30;64.62;101828.63;4923678;29;20056;-66
2023/05/14 09:44:27;;;;;;;18.92;9.60;;;20.00;99.90;;;20.47;63.38;101829.00;4926972;29;20551;-66
2023/05/14 09:46:56;;;;;;;15.18;9.45;;;20.20;99.90;;;20.63;62.29;101837.50;4923800;29;20044;-67
2023/05/14 09:49:25;;;;;;;15.13;8.63;;;20.40;99.90;;;19.88;61.71;101802.91;4923941;29;20111;-67
2023/05/14 09:51:56;;;;;;;19.33;11.23;;;19.90;99.90;;;19.87;63.20;101821.75;4926395;29;20119;-68
2023/05/14 09:54:26;;;;;;;19.13;9.73;;;19.70;99.90;;;19.18;66.24;101803.84;4940495;29;20059;-67
2023/05/14 09:56:55;;;;;;;20.45;10.38;;;19.10;99.90;;;19.37;67.09;101820.41;4925177;29;20461;-67
2023/05/14 09:59:23;;;;;;;20.45;9.70;;;19.00;99.90;;;19.41;67.07;101827.47;4924705;29;20138;-66
2023/05/14 10:01:53;;;;;;;17.52;10.00;;;19.00;99.90;;;19.58;68.55;101828.81;4939176;29;20060;-66
2023/05/14 10:04:23;;;;;;;25.83;11.27;;;19.20;99.90;;;19.69;67.22;101832.06;4923702;29;20044;-66
2023/05/14 10:06:54;;;;;;;23.70;9.30;;;19.40;99.90;;;19.99;66.67;101829.50;4923596;29;20052;-66
2023/05/14 10:09:27;;;;;;;19.48;10.32;;;19.70;99.90;;;20.27;65.39;101836.75;4926288;29;20047;-66